Time;durP1;ratioP1;P1;durP2;ratioP2;P2;SDS_P1;SDS_P2;PMS_P1;PMS_P2;Temp;Humidity;BMP_temperature;BMP_pressure;BME280_temperature;BME280_humidity;BME280_pressure;Samples;Min_cycle;Max_cycle;Signal;HPM_P1;HPM_P2
2021/11/02 00:00:38;;;;;;;3.95;1.50;;;6.00;99.90;;;;;;5063227;28;20035;-80
2021/11/02 00:03:05;;;;;;;4.13;1.33;;;6.00;99.90;;;;;;5076311;28;20378;-79
2021/11/02 00:05:31;;;;;;;6.10;1.60;;;6.00;99.90;;;;;;5076490;28;20096;-79
2021/11/02 00:07:57;;;;;;;5.20;2.50;;;6.00;99.90;;;;;;5076841;28;20020;-80
2021/11/02 00:10:23;;;;;;;1.83;0.93;;;6.00;99.90;;;;;;5058469;28;20017;-79
2021/11/02 00:12:49;;;;;;;5.50;1.25;;;5.90;99.90;;;;;;5058045;28;20044;-80
2021/11/02 00:15:21;;;;;;;5.13;1.30;;;5.90;99.90;;;;;;5058544;28;20036;-79
2021/11/02 00:17:48;;;;;;;3.20;1.52;;;5.90;99.90;;;;;;5076636;28;20436;-80
2021/11/02 00:20:15;;;;;;;2.88;1.02;;;5.90;99.90;;;;;;5058276;28;20034;-80
2021/11/02 00:22:42;;;;;;;3.03;1.30;;;5.90;99.90;;;;;;5058545;28;20017;-80
2021/11/02 00:25:08;;;;;;;3.13;1.33;;;5.80;99.90;;;;;;5058406;28;20032;-79
2021/11/02 00:27:39;;;;;;;2.72;1.50;;;5.80;99.90;;;;;;5058535;28;20024;-80
2021/11/02 00:30:11;;;;;;;4.85;1.48;;;5.80;99.90;;;;;;5058790;28;20099;-80
2021/11/02 00:32:37;;;;;;;4.03;1.58;;;5.80;99.90;;;;;;5076897;28;20103;-80
2021/11/02 00:35:05;;;;;;;5.88;1.70;;;5.80;99.90;;;;;;5075731;28;20383;-79
2021/11/02 00:37:31;;;;;;;4.82;1.77;;;5.80;99.90;;;;;;5074505;28;20021;-76
2021/11/02 00:39:56;;;;;;;4.95;1.48;;;5.80;99.90;;;;;;5073343;28;20547;-76
2021/11/02 00:42:31;;;;;;;2.60;1.42;;;5.80;99.90;;;;;;5073444;28;20028;-77
2021/11/02 00:44:59;;;;;;;4.40;1.58;;;5.70;99.90;;;;;;5073294;28;20048;-76
2021/11/02 00:47:26;;;;;;;3.17;1.23;;;5.70;99.90;;;;;;5073030;28;20017;-77
2021/11/02 00:49:52;;;;;;;5.18;1.83;;;5.70;99.90;;;;;;5055472;28;20393;-76
2021/11/02 00:52:18;;;;;;;4.28;1.50;;;5.60;99.90;;;;;;5072727;28;20024;-75
2021/11/02 00:54:45;;;;;;;5.55;2.25;;;5.60;99.90;;;;;;5073139;28;20385;-76
2021/11/02 00:57:10;;;;;;;6.10;1.90;;;5.60;99.90;;;;;;5073118;28;20104;-76
2021/11/02 00:59:36;;;;;;;3.70;1.75;;;5.60;99.90;;;;;;5073309;28;20106;-76
2021/11/02 01:02:05;;;;;;;3.88;1.70;;;5.60;99.90;;;;;;5073257;28;20154;-75
2021/11/02 01:04:31;;;;;;;1.98;1.23;;;5.60;99.90;;;;;;5074569;28;20024;-75
2021/11/02 01:06:56;;;;;;;5.75;1.48;;;5.60;99.90;;;;;;5076795;28;20504;-75
2021/11/02 01:09:22;;;;;;;3.40;1.60;;;5.50;99.90;;;;;;5077216;28;20035;-75
2021/11/02 01:11:48;;;;;;;3.67;1.52;;;5.50;99.90;;;;;;5076909;28;20031;-75
2021/11/02 01:14:13;;;;;;;2.75;1.60;;;5.50;99.90;;;;;;5077411;28;20031;-75
2021/11/02 01:16:39;;;;;;;5.28;1.73;;;5.50;99.90;;;;;;5076906;28;20024;-76
2021/11/02 01:19:04;;;;;;;7.70;1.65;;;5.50;99.90;;;;;;5077060;28;20020;-75
2021/11/02 01:21:30;;;;;;;4.93;1.77;;;5.50;99.90;;;;;;5058742;28;20524;-76
2021/11/02 01:23:56;;;;;;;5.18;1.80;;;5.50;99.90;;;;;;5076908;28;20042;-75
2021/11/02 01:26:23;;;;;;;7.32;1.60;;;5.50;99.90;;;;;;5076693;28;20017;-75
2021/11/02 01:28:48;;;;;;;5.30;1.83;;;5.50;99.90;;;;;;5076785;28;20039;-75
2021/11/02 01:31:14;;;;;;;5.10;2.00;;;5.50;99.90;;;;;;5076614;28;20374;-76
2021/11/02 01:33:40;;;;;;;5.20;1.55;;;5.50;99.90;;;;;;5076599;28;20036;-75
2021/11/02 01:36:09;;;;;;;4.60;2.15;;;5.50;99.90;;;;;;5076444;28;20036;-76
2021/11/02 01:38:35;;;;;;;4.75;1.70;;;5.50;99.90;;;;;;5058636;28;20051;-76
2021/11/02 01:41:02;;;;;;;2.63;1.42;;;5.50;99.90;;;;;;5076548;28;20028;-78
2021/11/02 01:43:28;;;;;;;3.28;1.73;;;5.60;99.90;;;;;;5076398;28;20020;-78
2021/11/02 01:45:54;;;;;;;4.78;2.47;;;5.50;99.90;;;;;;5058633;28;20166;-77
2021/11/02 01:48:24;;;;;;;5.05;1.67;;;5.50;99.90;;;;;;5058476;28;20021;-76
2021/11/02 01:50:49;;;;;;;2.78;1.38;;;5.50;99.90;;;;;;5076125;28;20032;-77
2021/11/02 01:53:16;;;;;;;5.85;1.92;;;5.50;99.90;;;;;;5058441;28;20020;-76
2021/11/02 01:55:41;;;;;;;3.72;1.73;;;5.50;99.90;;;;;;5076302;28;20501;-76
2021/11/02 01:58:09;;;;;;;4.63;1.75;;;5.50;99.90;;;;;;5058247;28;20025;-77
2021/11/02 02:00:36;;;;;;;3.85;1.95;;;5.60;99.90;;;;;;5076332;28;20381;-77
2021/11/02 02:03:21;;;;;;;3.95;1.90;;;5.60;99.90;;;;;;5075913;28;20059;-76
2021/11/02 02:06:11;;;;;;;4.68;1.67;;;5.60;99.90;;;;;;5058216;28;20021;-75
2021/11/02 02:09:04;;;;;;;5.95;1.35;;;5.60;99.90;;;;;;5076129;28;20030;-76
2021/11/02 02:12:01;;;;;;;4.97;1.95;;;5.60;99.90;;;;;;5058096;28;20021;-76
2021/11/02 02:14:47;;;;;;;3.53;2.22;;;5.60;99.90;;;;;;5076550;28;20035;-76
2021/11/02 02:17:26;;;;;;;5.28;1.63;;;5.70;99.90;;;;;;5074734;28;20025;-76
2021/11/02 02:19:58;;;;;;;3.38;1.70;;;5.80;99.90;;;;;;5058603;28;20029;-76
2021/11/02 02:22:31;;;;;;;3.40;1.40;;;5.80;99.90;;;;;;5057880;28;20138;-75
2021/11/02 02:25:30;;;;;;;6.68;2.00;;;5.80;99.90;;;;;;5075647;28;20093;-77
2021/11/02 02:28:08;;;;;;;4.70;1.75;;;5.80;99.90;;;;;;5075706;28;20531;-76
2021/11/02 02:30:39;;;;;;;3.53;1.70;;;5.70;99.90;;;;;;5076012;28;20039;-75
2021/11/02 02:33:06;;;;;;;4.60;1.95;;;5.80;99.90;;;;;;5075616;28;20441;-76
2021/11/02 02:35:33;;;;;;;6.45;2.28;;;5.80;99.90;;;;;;5057583;28;20009;-76
2021/11/02 02:37:59;;;;;;;6.10;1.73;;;5.90;99.90;;;;;;5075598;28;20521;-75
2021/11/02 02:40:25;;;;;;;5.55;2.08;;;5.90;99.90;;;;;;5057327;28;20022;-74
2021/11/02 02:42:51;;;;;;;7.47;2.33;;;5.80;99.90;;;;;;5075487;28;20032;-74
2021/11/02 02:45:18;;;;;;;6.40;1.98;;;5.80;99.90;;;;;;5075557;28;20028;-74
2021/11/02 02:47:45;;;;;;;5.53;2.33;;;5.90;99.90;;;;;;5075331;28;20129;-74
2021/11/02 02:50:11;;;;;;;6.53;2.08;;;5.80;99.90;;;;;;5075079;28;20020;-74
2021/11/02 02:52:39;;;;;;;6.72;2.40;;;5.90;99.90;;;;;;5075477;28;20027;-74
2021/11/02 02:55:06;;;;;;;9.77;2.37;;;5.80;99.90;;;;;;5057127;28;20028;-75
2021/11/02 02:57:33;;;;;;;5.28;1.95;;;5.80;99.90;;;;;;5057149;28;20827;-75
2021/11/02 03:00:00;;;;;;;7.80;2.20;;;5.80;99.90;;;;;;5074810;28;20037;-75
2021/11/02 03:02:30;;;;;;;6.30;2.25;;;5.70;99.90;;;;;;5075045;28;20509;-75
2021/11/02 03:04:58;;;;;;;7.57;2.53;;;5.70;99.90;;;;;;5075339;28;20028;-74
2021/11/02 03:07:24;;;;;;;6.40;1.80;;;5.60;99.90;;;;;;5057004;28;20112;-74
2021/11/02 03:09:50;;;;;;;7.60;2.22;;;5.60;99.90;;;;;;5074857;28;20486;-75
2021/11/02 03:12:36;;;;;;;6.53;2.08;;;5.60;99.90;;;;;;5074829;28;20034;-74
2021/11/02 03:18:02;;;;;;;10.23;2.45;;;5.40;99.90;;;;;;5075017;28;20037;-74
2021/11/02 03:48:19;;;;;;;12.95;2.88;;;5.30;99.90;;;;;;5074442;28;20056;-77
2021/11/02 03:51:06;;;;;;;9.30;2.45;;;5.40;99.90;;;;;;5055934;28;20036;-78
2021/11/02 03:59:18;;;;;;;9.43;2.15;;;5.30;99.90;;;;;;5073903;28;20020;-77
2021/11/02 04:48:41;;;;;;;14.73;1.98;;;5.20;99.90;;;;;;5077351;28;20520;-79
2021/11/02 05:07:32;;;;;;;7.95;1.80;;;5.20;99.90;;;;;;5062410;28;20111;-80
2021/11/02 05:10:21;;;;;;;10.68;2.00;;;5.20;99.90;;;;;;5076757;28;20043;-79
2021/11/02 05:48:41;;;;;;;4.65;1.27;;;5.20;99.90;;;;;;5072911;28;20089;-76
2021/11/02 06:04:08;;;;;;;7.65;1.98;;;5.50;99.90;;;;;;5075953;28;20040;-74
2021/11/02 06:06:44;;;;;;;4.68;1.33;;;5.60;99.90;;;;;;5058093;28;20389;-76
2021/11/02 06:09:20;;;;;;;6.78;1.55;;;5.60;99.90;;;;;;5058010;28;20027;-76
2021/11/02 06:27:42;;;;;;;7.38;1.52;;;5.70;99.90;;;;;;5076106;28;20038;-75
2021/11/02 06:29:08;;;;;;;5.35;1.40;;;5.70;99.90;;;;;;5076341;28;20086;-74
2021/11/02 06:31:37;;;;;;;4.88;1.52;;;5.70;99.90;;;;;;5080192;28;20037;-74
2021/11/02 06:34:37;;;;;;;7.25;1.10;;;5.70;99.90;;;;;;5080492;28;20542;-74
2021/11/02 06:51:20;;;;;;;5.55;1.20;;;5.90;99.90;;;;;;5080188;28;20028;-75
2021/11/02 07:16:18;;;;;;;3.63;1.40;;;6.40;99.90;;;;;;5080512;28;20098;-76
2021/11/02 07:18:44;;;;;;;7.35;1.70;;;6.50;99.90;;;;;;5078970;28;20036;-77
2021/11/02 07:21:18;;;;;;;4.75;1.63;;;6.50;99.90;;;;;;5061185;28;20044;-77
2021/11/02 07:23:54;;;;;;;7.00;1.80;;;6.50;99.90;;;;;;5079236;28;20032;-76
2021/11/02 07:26:41;;;;;;;5.65;1.45;;;6.50;99.90;;;;;;5078912;28;20021;-77
2021/11/02 08:47:47;;;;;;;5.78;2.80;;;7.90;99.90;;;;;;5075867;28;20028;-79
2021/11/02 08:50:19;;;;;;;8.52;3.83;;;7.90;99.90;;;;;;5075983;28;20070;-78
2021/11/02 08:52:51;;;;;;;6.70;2.45;;;8.00;99.90;;;;;;5057332;28;20108;-78
2021/11/02 08:55:18;;;;;;;9.35;4.18;;;8.10;99.90;;;;;;5075422;28;20021;-78
2021/11/02 08:57:46;;;;;;;10.48;3.65;;;8.10;99.90;;;;;;5057149;28;20036;-78
2021/11/02 09:00:12;;;;;;;9.00;4.43;;;8.10;99.90;;;;;;5075304;28;20370;-78
2021/11/02 09:02:42;;;;;;;11.63;4.05;;;8.10;99.90;;;;;;5073909;28;20028;-77
2021/11/02 09:05:12;;;;;;;14.00;4.93;;;8.10;99.90;;;;;;5075805;28;20434;-78
2021/11/02 09:07:38;;;;;;;12.55;4.53;;;8.10;99.90;;;;;;5057240;28;20017;-79
2021/11/02 09:10:24;;;;;;;17.15;5.70;;;8.10;99.90;;;;;;5075521;28;20078;-78
2021/11/02 09:12:53;;;;;;;14.13;4.72;;;8.10;99.90;;;;;;5057503;28;20098;-78
2021/11/02 09:15:31;;;;;;;12.20;5.45;;;8.20;99.90;;;;;;5074852;28;20098;-76
2021/11/02 09:18:01;;;;;;;14.98;6.25;;;8.70;99.90;;;;;;5072941;28;20505;-76
2021/11/02 09:20:27;;;;;;;13.10;5.47;;;8.10;99.90;;;;;;5073294;28;20100;-76
2021/11/02 09:22:53;;;;;;;14.52;6.57;;;8.10;99.90;;;;;;5073216;28;20055;-76
2021/11/02 09:25:20;;;;;;;13.75;5.85;;;8.20;99.90;;;;;;5055930;28;20029;-76
2021/11/02 09:27:47;;;;;;;13.55;5.75;;;8.20;99.90;;;;;;5077720;28;20024;-77
2021/11/02 09:30:16;;;;;;;11.23;5.57;;;8.20;99.90;;;;;;5058885;28;20017;-76
2021/11/02 09:32:46;;;;;;;11.18;5.47;;;8.30;99.90;;;;;;5076656;28;20120;-76
2021/11/02 09:35:14;;;;;;;20.42;6.55;;;8.20;99.90;;;;;;5077316;28;20024;-77
2021/11/02 09:38:02;;;;;;;16.42;6.30;;;8.20;99.90;;;;;;5076773;28;20020;-77
2021/11/02 09:40:30;;;;;;;13.63;6.18;;;8.30;99.90;;;;;;5059523;28;20020;-77
2021/11/02 09:42:58;;;;;;;13.50;6.70;;;8.20;99.90;;;;;;5076637;28;20060;-77
2021/11/02 09:45:57;;;;;;;15.05;6.90;;;8.30;99.90;;;;;;5076755;28;20477;-77
2021/11/02 09:49:02;;;;;;;17.70;6.38;;;6.70;99.90;;;;;;5076492;28;20021;-77
2021/11/02 09:51:39;;;;;;;16.58;6.93;;;8.30;99.90;;;;;;5076792;28;20377;-77
2021/11/02 09:54:31;;;;;;;9.23;4.88;;;8.30;99.90;;;;;;5042191;28;20147;-77
2021/11/02 09:57:19;;;;;;;14.02;5.85;;;8.30;99.90;;;;;;5076587;28;20102;-77
2021/11/02 10:00:06;;;;;;;17.45;7.85;;;8.30;99.90;;;;;;5076434;28;20025;-77
2021/11/02 10:03:07;;;;;;;14.30;7.13;;;8.30;99.90;;;;;;5076878;28;20422;-77
2021/11/02 10:06:04;;;;;;;13.63;6.43;;;8.40;99.90;;;;;;5076809;28;20531;-77
2021/11/02 10:08:33;;;;;;;13.57;6.40;;;8.40;99.90;;;;;;5058351;28;20025;-77
2021/11/02 10:11:19;;;;;;;14.50;6.07;;;8.40;99.90;;;;;;5058355;28;20024;-77
2021/11/02 10:13:49;;;;;;;16.30;6.53;;;8.50;99.90;;;;;;5058081;28;20275;-77
2021/11/02 10:16:40;;;;;;;16.38;6.93;;;8.60;99.90;;;;;;5075962;28;20029;-77
2021/11/02 10:19:34;;;;;;;13.90;6.65;;;8.70;99.90;;;;;;5076262;28;20170;-77
2021/11/02 10:22:24;;;;;;;15.48;6.28;;;8.70;99.90;;;;;;5076455;28;20362;-78
2021/11/02 10:25:08;;;;;;;12.13;6.45;;;8.80;99.90;;;;;;5057871;28;20032;-77
2021/11/02 10:27:39;;;;;;;13.70;6.25;;;8.80;99.90;;;;;;5057881;28;20547;-77
2021/11/02 10:30:33;;;;;;;12.43;6.53;;;8.90;99.90;;;;;;5057917;28;20044;-78
2021/11/02 10:33:15;;;;;;;12.98;6.65;;;8.90;99.90;;;;;;5075798;28;20090;-77
2021/11/02 10:36:07;;;;;;;14.32;6.18;;;8.90;99.90;;;;;;5076002;28;20025;-77
2021/11/02 10:38:40;;;;;;;15.02;6.13;;;9.00;99.90;;;;;;5073816;28;20028;-77
2021/11/02 10:41:12;;;;;;;13.50;5.85;;;9.10;99.90;;;;;;5057767;28;20119;-76
2021/11/02 10:43:48;;;;;;;16.40;6.25;;;9.10;99.90;;;;;;5058313;28;20055;-77
2021/11/02 10:46:14;;;;;;;12.75;6.18;;;9.20;99.90;;;;;;5057653;28;20021;-77
2021/11/02 10:48:43;;;;;;;11.85;5.70;;;9.20;99.90;;;;;;5074408;28;20107;-77
2021/11/02 10:51:23;;;;;;;13.03;6.43;;;9.30;99.90;;;;;;5075423;28;20027;-77
2021/11/02 10:54:21;;;;;;;14.55;6.25;;;9.30;99.90;;;;;;5057429;28;20535;-77
2021/11/02 10:56:53;;;;;;;14.52;6.22;;;9.40;99.90;;;;;;5057262;28;20024;-77
2021/11/02 10:59:22;;;;;;;13.63;6.07;;;9.40;99.90;;;;;;5057319;28;20496;-77
2021/11/02 11:01:47;;;;;;;11.80;6.00;;;9.50;99.90;;;;;;5057275;28;20013;-77
2021/11/02 11:04:14;;;;;;;8.90;5.00;;;9.50;99.90;;;;;;5075953;28;20066;-77
2021/11/02 11:06:43;;;;;;;9.43;5.20;;;9.50;99.90;;;;;;5075028;28;20028;-77
2021/11/02 11:09:13;;;;;;;13.10;5.35;;;9.50;99.90;;;;;;5075319;28;20032;-77
2021/11/02 11:11:46;;;;;;;8.93;4.93;;;9.50;99.90;;;;;;5057300;28;20420;-77
2021/11/02 11:14:14;;;;;;;11.88;5.35;;;9.50;99.90;;;;;;5056913;28;20025;-77
2021/11/02 11:16:45;;;;;;;9.20;4.45;;;9.50;99.90;;;;;;5075118;28;20025;-78
2021/11/02 11:19:27;;;;;;;9.57;4.20;;;9.60;99.90;;;;;;5057310;28;20020;-77
2021/11/02 11:21:55;;;;;;;9.32;4.45;;;9.60;99.90;;;;;;5057924;28;20178;-78
2021/11/02 11:24:34;;;;;;;9.50;4.03;;;9.70;99.90;;;;;;5075281;28;20112;-77
2021/11/02 11:27:07;;;;;;;;;;;9.80;99.90;;;;;;5075390;28;20048;-77
2021/11/02 11:29:42;;;;;;;8.70;4.20;;;9.80;99.90;;;;;;5074640;28;19912;-77
2021/11/02 11:32:09;;;;;;;7.55;3.95;;;9.90;99.90;;;;;;5056508;28;20017;-77
2021/11/02 11:34:42;;;;;;;9.48;4.85;;;10.00;99.90;;;;;;5074619;28;20032;-77
2021/11/02 11:37:10;;;;;;;8.43;4.25;;;10.00;99.90;;;;;;5074615;28;20107;-77
2021/11/02 11:39:36;;;;;;;10.77;4.28;;;10.10;99.90;;;;;;5056519;28;20067;-77
2021/11/02 11:42:02;;;;;;;8.10;4.25;;;10.20;99.90;;;;;;5073095;28;20473;-77
2021/11/02 11:44:29;;;;;;;9.75;4.45;;;10.20;99.90;;;;;;5073352;28;20016;-77
2021/11/02 11:47:21;;;;;;;10.07;3.95;;;10.30;99.90;;;;;;5074860;28;20457;-77
2021/11/02 11:49:48;;;;;;;9.68;4.25;;;12.40;99.90;;;;;;5073995;28;20028;-77
2021/11/02 11:52:20;;;;;;;6.60;3.80;;;10.40;99.90;;;;;;5056825;28;20052;-77
2021/11/02 11:54:49;;;;;;;6.75;3.92;;;10.30;99.90;;;;;;5074404;28;20033;-77
2021/11/02 11:57:26;;;;;;;8.20;3.90;;;10.40;99.90;;;;;;5056143;28;20021;-78
2021/11/02 11:59:57;;;;;;;11.30;4.28;;;10.50;99.90;;;;;;5073910;28;20477;-78
2021/11/02 12:02:37;;;;;;;7.95;4.05;;;10.40;99.90;;;;;;5056386;28;20099;-77
2021/11/02 12:05:17;;;;;;;12.40;4.68;;;10.40;99.90;;;;;;5073906;28;20039;-77
2021/11/02 12:07:53;;;;;;;8.57;3.85;;;10.40;99.90;;;;;;5073789;28;20389;-77
2021/11/02 12:10:22;;;;;;;7.15;3.65;;;10.30;99.90;;;;;;5074276;28;20028;-77
2021/11/02 12:12:49;;;;;;;9.18;4.35;;;10.20;99.90;;;;;;5056093;28;20016;-77
2021/11/02 12:15:16;;;;;;;8.07;3.42;;;10.30;99.90;;;;;;5073761;28;20036;-77
2021/11/02 12:17:44;;;;;;;6.72;3.28;;;10.40;99.90;;;;;;5073581;28;20021;-77
2021/11/02 12:20:15;;;;;;;6.68;3.35;;;10.50;99.90;;;;;;5055681;28;20032;-78
2021/11/02 12:22:51;;;;;;;6.20;3.15;;;10.60;99.90;;;;;;5073614;28;20027;-75
2021/11/02 12:25:23;;;;;;;5.07;3.22;;;10.60;99.90;;;;;;5055461;28;20024;-75
2021/11/02 12:27:49;;;;;;;6.80;3.65;;;10.60;99.90;;;;;;5073473;28;20461;-75
2021/11/02 12:30:18;;;;;;;8.75;3.67;;;10.70;99.90;;;;;;5073879;28;20023;-75
2021/11/02 12:32:52;;;;;;;;;;;10.70;99.90;;;;;;5073719;28;20035;-75
2021/11/02 12:35:29;;;;;;;7.57;3.97;;;10.70;99.90;;;;;;5073659;28;19950;-75
2021/11/02 12:38:00;;;;;;;6.50;3.53;;;10.60;99.90;;;;;;5059258;28;20067;-77
2021/11/02 12:40:30;;;;;;;13.20;4.22;;;10.60;99.90;;;;;;5060147;28;20205;-77
2021/11/02 12:42:57;;;;;;;5.95;3.53;;;10.60;99.90;;;;;;5075689;28;20431;-77
2021/11/02 12:45:27;;;;;;;5.07;2.85;;;10.50;99.90;;;;;;5073149;28;20490;-75
2021/11/02 12:47:59;;;;;;;8.07;4.03;;;10.50;99.90;;;;;;5073377;28;20021;-75
2021/11/02 12:50:28;;;;;;;6.22;3.50;;;10.40;99.90;;;;;;5073312;28;20029;-76
2021/11/02 12:52:56;;;;;;;5.97;3.53;;;10.40;99.90;;;;;;5073307;28;20021;-76
2021/11/02 12:55:25;;;;;;;6.10;3.30;;;10.30;99.90;;;;;;5055217;28;20020;-76
2021/11/02 12:58:26;;;;;;;5.90;3.08;;;10.30;99.90;;;;;;5073224;28;20021;-76
2021/11/02 13:00:59;;;;;;;7.32;3.90;;;10.20;99.90;;;;;;5011128;28;20034;-76
2021/11/02 13:03:35;;;;;;;6.80;3.53;;;10.20;99.90;;;;;;5045740;28;20114;-76
2021/11/02 13:06:07;;;;;;;8.00;4.53;;;10.20;99.90;;;;;;5073150;28;20027;-76
2021/11/02 13:08:57;;;;;;;8.32;3.80;;;10.20;99.90;;;;;;5055207;28;20012;-76
2021/11/02 13:11:26;;;;;;;6.10;2.60;;;10.30;99.90;;;;;;5073639;28;20107;-76
2021/11/02 13:14:03;;;;;;;10.65;3.03;;;10.30;99.90;;;;;;5055034;28;20493;-76
2021/11/02 13:16:30;;;;;;;5.38;2.85;;;10.40;99.90;;;;;;5072994;28;20024;-76
2021/11/02 13:18:56;;;;;;;3.65;2.28;;;10.40;99.90;;;;;;5072976;28;20386;-76
2021/11/02 13:21:33;;;;;;;5.88;2.95;;;10.50;99.90;;;;;;5075932;28;20017;-77
2021/11/02 13:24:13;;;;;;;4.63;2.00;;;10.50;99.90;;;;;;5079297;28;20032;-77
2021/11/02 13:26:44;;;;;;;6.07;3.30;;;10.50;99.90;;;;;;5078712;28;20052;-77
2021/11/02 13:29:13;;;;;;;3.72;2.17;;;10.50;99.90;;;;;;5077534;28;20045;-77
2021/11/02 13:31:39;;;;;;;;;;;10.40;99.90;;;;;;5080215;28;20456;-77
2021/11/02 13:34:08;;;;;;;5.43;2.63;;;10.20;99.90;;;;;;5062065;28;19938;-76
2021/11/02 13:36:35;;;;;;;3.80;2.53;;;10.20;99.90;;;;;;5067044;28;20092;-77
2021/11/02 13:39:09;;;;;;;4.13;2.00;;;10.00;99.90;;;;;;5078645;28;20055;-76
2021/11/02 13:41:55;;;;;;;5.68;2.88;;;10.00;99.90;;;;;;5082494;28;20068;-77
2021/11/02 13:44:23;;;;;;;5.80;2.40;;;9.90;99.90;;;;;;5069346;28;20029;-76
2021/11/02 13:46:55;;;;;;;4.05;1.92;;;10.00;99.90;;;;;;5066327;28;20120;-76
2021/11/02 13:49:21;;;;;;;2.97;1.55;;;10.00;99.90;;;;;;5081054;28;20049;-77
2021/11/02 13:51:49;;;;;;;4.30;1.98;;;10.10;99.90;;;;;;5077879;28;20017;-77
2021/11/02 13:54:15;;;;;;;3.80;2.00;;;10.20;99.90;;;;;;5078443;28;20063;-77
2021/11/02 13:56:44;;;;;;;2.67;1.92;;;10.20;99.90;;;;;;5078726;28;20024;-77
2021/11/02 13:59:10;;;;;;;;;;;10.20;99.90;;;;;;5063447;28;20029;-76
2021/11/02 14:01:50;;;;;;;4.13;1.63;;;10.20;99.90;;;;;;5055612;28;20140;-76
2021/11/02 14:04:43;;;;;;;3.25;1.70;;;10.20;99.90;;;;;;5054564;28;20063;-77
2021/11/02 14:07:14;;;;;;;2.65;1.63;;;10.20;99.90;;;;;;5069795;28;20029;-77
2021/11/02 14:09:44;;;;;;;6.07;2.25;;;10.10;99.90;;;;;;5072764;28;20108;-77
2021/11/02 14:12:30;;;;;;;4.85;2.50;;;10.10;99.90;;;;;;5073338;28;20445;-77
2021/11/02 14:15:10;;;;;;;1.73;1.48;;;10.00;99.90;;;;;;5074737;28;20174;-77
2021/11/02 14:17:47;;;;;;;2.33;1.20;;;10.00;99.90;;;;;;5057911;28;20032;-76
2021/11/02 14:20:32;;;;;;;3.40;1.42;;;10.00;99.90;;;;;;5076146;28;20029;-75
2021/11/02 14:23:02;;;;;;;3.05;1.02;;;9.90;99.90;;;;;;5075759;28;20029;-75
2021/11/02 14:25:36;;;;;;;3.58;1.48;;;9.90;99.90;;;;;;5075720;28;20032;-76
2021/11/02 14:28:03;;;;;;;4.38;1.58;;;9.90;99.90;;;;;;5075805;28;20025;-76
2021/11/02 14:30:32;;;;;;;2.05;1.08;;;9.90;99.90;;;;;;5057791;28;20028;-75
2021/11/02 14:33:42;;;;;;;3.25;1.55;;;9.90;99.90;;;;;;5080954;28;20493;-76
2021/11/02 14:36:09;;;;;;;2.55;1.40;;;9.80;99.90;;;;;;5083414;28;20146;-76
2021/11/02 14:38:47;;;;;;;2.08;1.20;;;9.80;99.90;;;;;;5080199;28;20021;-77
2021/11/02 14:41:34;;;;;;;3.78;2.15;;;9.80;99.90;;;;;;5081136;28;20094;-77
2021/11/02 14:44:17;;;;;;;2.78;1.60;;;9.70;99.90;;;;;;5080899;28;20039;-77
2021/11/02 14:47:29;;;;;;;11.35;2.45;;;9.70;99.90;;;;;;5080347;28;20067;-77
2021/11/02 14:49:55;;;;;;;2.15;1.35;;;9.70;99.90;;;;;;5079797;28;20025;-76
2021/11/02 14:52:25;;;;;;;3.15;1.65;;;9.70;99.90;;;;;;5080873;28;20358;-76
2021/11/02 14:54:51;;;;;;;4.03;1.70;;;9.60;99.90;;;;;;5079874;28;20385;-76
2021/11/02 14:57:20;;;;;;;1.50;1.20;;;9.60;99.90;;;;;;5062225;28;20115;-76
2021/11/02 14:59:51;;;;;;;2.10;1.35;;;9.60;99.90;;;;;;5079933;28;20029;-77
2021/11/02 15:02:16;;;;;;;2.85;1.83;;;9.50;99.90;;;;;;5080704;28;20032;-76
2021/11/02 15:04:51;;;;;;;2.00;1.33;;;9.40;99.90;;;;;;5081135;28;20513;-76
2021/11/02 15:07:20;;;;;;;5.18;1.65;;;9.40;99.90;;;;;;5075024;28;20081;-77
2021/11/02 15:09:46;;;;;;;3.78;1.73;;;9.30;99.90;;;;;;5080927;28;20131;-75
2021/11/02 15:12:12;;;;;;;2.00;1.40;;;9.30;99.90;;;;;;5080224;28;20478;-77
2021/11/02 15:14:41;;;;;;;1.90;1.42;;;9.20;99.90;;;;;;5063642;28;20460;-79
2021/11/02 15:17:09;;;;;;;3.40;1.50;;;9.20;99.90;;;;;;5082627;28;20028;-82
2021/11/02 15:19:38;;;;;;;3.45;1.95;;;9.20;99.90;;;;;;5083111;28;20032;-80
2021/11/02 15:22:09;;;;;;;3.28;1.38;;;9.20;99.90;;;;;;5082697;28;20024;-81
2021/11/02 15:24:40;;;;;;;3.22;2.15;;;9.20;99.90;;;;;;5080725;28;20028;-79
2021/11/02 15:27:11;;;;;;;2.47;1.65;;;9.20;99.90;;;;;;5060495;28;20024;-80
2021/11/02 15:29:42;;;;;;;3.03;2.05;;;9.20;99.90;;;;;;5076810;28;20074;-80
2021/11/02 15:32:23;;;;;;;3.50;2.25;;;9.20;99.90;;;;;;5058896;28;20019;-78
2021/11/02 15:34:59;;;;;;;4.75;2.20;;;9.20;99.90;;;;;;5058515;28;20035;-78
2021/11/02 15:37:37;;;;;;;5.82;2.38;;;9.20;99.90;;;;;;5075131;28;20048;-78
2021/11/02 15:40:16;;;;;;;4.32;2.35;;;9.20;99.90;;;;;;5057311;28;20033;-78
2021/11/02 15:42:44;;;;;;;;;;;9.20;99.90;;;;;;5076457;28;20099;-79
2021/11/02 15:45:29;;;;;;;7.93;2.97;;;9.20;99.90;;;;;;5057304;28;19962;-79
2021/11/02 15:47:54;;;;;;;9.00;3.45;;;9.20;99.90;;;;;;5074796;28;20067;-78
2021/11/02 15:50:23;;;;;;;4.63;2.30;;;9.10;99.90;;;;;;5056783;28;20012;-79
2021/11/02 15:52:55;;;;;;;3.08;1.88;;;9.10;99.90;;;;;;5074448;28;20021;-79
2021/11/02 15:55:22;;;;;;;3.03;1.70;;;9.10;99.90;;;;;;5074527;28;20021;-78
2021/11/02 15:57:53;;;;;;;1.77;0.57;;;9.10;99.90;;;;;;5056257;28;20033;-78
2021/11/02 16:00:23;;;;;;;2.85;0.57;;;9.00;99.90;;;;;;5074483;28;20032;-78
2021/11/02 16:02:49;;;;;;;1.20;0.40;;;9.00;99.90;;;;;;5056329;28;20043;-78
2021/11/02 16:05:20;;;;;;;3.35;0.30;;;8.90;99.90;;;;;;5074558;28;20390;-78
2021/11/02 16:07:46;;;;;;;1.27;0.40;;;8.90;99.90;;;;;;5075108;28;20021;-79
2021/11/02 16:10:13;;;;;;;0.47;0.15;;;8.90;99.90;;;;;;5057400;28;20032;-79
2021/11/02 16:12:41;;;;;;;1.42;0.40;;;8.90;99.90;;;;;;5074690;28;20139;-78
2021/11/02 16:15:06;;;;;;;0.50;0.10;;;8.80;99.90;;;;;;5074181;28;20016;-79
2021/11/02 16:17:42;;;;;;;1.70;0.10;;;8.90;99.90;;;;;;5074828;28;20094;-79
2021/11/02 16:20:18;;;;;;;16.15;0.63;;;8.80;99.90;;;;;;5056225;28;20027;-74
2021/11/02 16:23:04;;;;;;;1.15;0.20;;;8.80;99.90;;;;;;5055927;28;20394;-75
2021/11/02 16:25:32;;;;;;;2.38;0.13;;;8.70;99.90;;;;;;5055834;28;20024;-74
2021/11/02 16:28:07;;;;;;;0.35;0.00;;;8.70;99.90;;;;;;5074094;28;20027;-74
2021/11/02 16:30:45;;;;;;;0.57;0.10;;;8.70;99.90;;;;;;5056287;28;20090;-75
2021/11/02 16:33:12;;;;;;;1.47;0.07;;;8.70;99.90;;;;;;5074837;28;20443;-76
2021/11/02 16:35:45;;;;;;;0.75;0.10;;;8.60;99.90;;;;;;5055336;28;20278;-74
2021/11/02 16:38:35;;;;;;;2.22;0.00;;;8.60;99.90;;;;;;5073840;28;20031;-74
2021/11/02 16:41:06;;;;;;;0.50;0.22;;;8.50;99.90;;;;;;5074419;28;20082;-74
2021/11/02 16:43:46;;;;;;;1.10;0.10;;;8.60;99.90;;;;;;5055833;28;20099;-74
2021/11/02 16:46:26;;;;;;;0.20;0.00;;;8.60;99.90;;;;;;5055235;28;20025;-74
2021/11/02 16:49:02;;;;;;;1.25;0.00;;;8.50;99.90;;;;;;5073444;28;20024;-77
2021/11/02 16:52:00;;;;;;;2.17;0.10;;;8.50;99.90;;;;;;5056225;28;20029;-77
2021/11/02 16:54:28;;;;;;;5.00;0.32;;;8.50;99.90;;;;;;5073593;28;20025;-77
2021/11/02 16:57:08;;;;;;;2.08;0.32;;;8.60;99.90;;;;;;5073355;28;20028;-77
2021/11/02 16:59:40;;;;;;;1.00;0.00;;;8.60;99.90;;;;;;5073492;28;20029;-77
2021/11/02 17:02:30;;;;;;;1.33;0.30;;;8.60;99.90;;;;;;5055488;28;20024;-77
2021/11/02 17:05:21;;;;;;;0.22;0.10;;;8.60;99.90;;;;;;5055583;28;20525;-78
2021/11/02 17:07:49;;;;;;;0.68;0.00;;;8.60;99.90;;;;;;5072022;28;20047;-78
2021/11/02 17:10:24;;;;;;;1.00;0.00;;;8.60;99.90;;;;;;5073181;28;20032;-78
2021/11/02 17:12:53;;;;;;;0.10;0.00;;;8.60;99.90;;;;;;5055775;28;20098;-77
2021/11/02 17:15:38;;;;;;;0.10;0.00;;;8.60;99.90;;;;;;5055455;28;20031;-77
2021/11/02 17:18:07;;;;;;;0.65;0.00;;;8.60;99.90;;;;;;5055224;28;20036;-79
2021/11/02 17:20:34;;;;;;;0.10;0.00;;;8.50;99.90;;;;;;5073408;28;20424;-77
2021/11/02 17:23:02;;;;;;;0.45;0.00;;;8.50;99.90;;;;;;5073776;28;20024;-77
2021/11/02 17:25:28;;;;;;;0.63;0.00;;;8.50;99.90;;;;;;5055057;28;20062;-76
2021/11/02 17:27:55;;;;;;;0.47;0.00;;;8.50;99.90;;;;;;5073014;28;20301;-77
2021/11/02 17:30:27;;;;;;;0.45;0.00;;;8.40;99.90;;;;;;5055329;28;20123;-77
2021/11/02 17:32:56;;;;;;;0.10;0.00;;;8.40;99.90;;;;;;5073065;28;20186;-78
2021/11/02 17:35:22;;;;;;;1.73;0.00;;;8.40;99.90;;;;;;5055169;28;20078;-78
2021/11/02 17:37:52;;;;;;;0.00;0.00;;;8.40;99.90;;;;;;5054839;28;20431;-78
2021/11/02 17:40:19;;;;;;;0.65;0.00;;;8.30;99.90;;;;;;5073152;28;20103;-78
2021/11/02 17:42:47;;;;;;;0.00;0.00;;;8.30;99.90;;;;;;5055142;28;20462;-77
2021/11/02 17:45:13;;;;;;;0.00;0.00;;;8.30;99.90;;;;;;5073511;28;20016;-77
2021/11/02 17:47:42;;;;;;;0.22;0.00;;;8.30;99.90;;;;;;5075960;28;20031;-78
2021/11/02 17:50:08;;;;;;;0.98;0.47;;;8.20;99.90;;;;;;5058840;28;20388;-77
2021/11/02 17:52:34;;;;;;;0.05;0.00;;;8.20;99.90;;;;;;5058750;28;20419;-78
2021/11/02 17:55:00;;;;;;;0.70;0.00;;;8.20;99.90;;;;;;5058681;28;20081;-77
2021/11/02 17:57:26;;;;;;;0.00;0.00;;;8.10;99.90;;;;;;5076797;28;20135;-78
2021/11/02 17:59:52;;;;;;;0.10;0.00;;;8.10;99.90;;;;;;5058637;28;20025;-77
2021/11/02 18:02:18;;;;;;;2.35;0.15;;;8.10;99.90;;;;;;5076539;28;20540;-78